createdAt,value
2022-08-12T00:01:09.599Z,21.50
2022-08-12T00:03:55.507Z,21.50
2022-08-12T00:06:43.659Z,21.40
2022-08-12T00:09:29.388Z,21.40
2022-08-12T00:12:15.194Z,21.40
2022-08-12T00:15:02.550Z,21.40
2022-08-12T00:17:48.895Z,21.40
2022-08-12T00:20:34.785Z,21.40
2022-08-12T00:23:22.109Z,21.40
2022-08-12T00:26:23.294Z,21.40
2022-08-12T00:29:11.802Z,21.40
2022-08-12T00:31:58.279Z,21.30
2022-08-12T00:34:46.568Z,21.30
2022-08-12T00:37:35.362Z,21.30
2022-08-12T00:40:24.577Z,21.20
2022-08-12T00:42:54.027Z,21.20
2022-08-12T00:45:22.570Z,21.20
2022-08-12T00:47:53.061Z,21.20
2022-08-12T00:50:23.835Z,21.20
2022-08-12T00:52:53.902Z,21.20
2022-08-12T00:55:23.597Z,21.20
2022-08-12T00:57:52.772Z,21.10
2022-08-12T01:00:24.131Z,21.10
2022-08-12T01:02:57.421Z,21.10
2022-08-12T01:05:44.768Z,21.10
2022-08-12T01:08:45.147Z,21.00
2022-08-12T01:11:31.430Z,21.00
2022-08-12T01:14:01.739Z,21.00
2022-08-12T01:16:30.874Z,20.90
2022-08-12T01:19:00.847Z,20.90
2022-08-12T01:22:04.313Z,20.90
2022-08-12T01:24:57.183Z,20.90
2022-08-12T01:27:27.616Z,20.80
2022-08-12T01:29:59.216Z,20.80
2022-08-12T01:32:30.224Z,20.90
2022-08-12T01:35:05.727Z,20.80
2022-08-12T01:37:39.221Z,20.80
2022-08-12T01:40:36.250Z,20.70
2022-08-12T01:43:06.736Z,20.70
2022-08-12T01:45:43.003Z,20.70
2022-08-12T01:48:25.410Z,20.70
2022-08-12T01:51:06.498Z,20.60
2022-08-12T01:53:51.436Z,20.60
2022-08-12T01:56:26.437Z,20.60
2022-08-12T01:59:19.407Z,20.60
2022-08-12T02:01:51.459Z,20.50
2022-08-12T02:04:52.760Z,20.50
2022-08-12T02:07:55.170Z,20.50
2022-08-12T02:10:53.622Z,20.40
2022-08-12T02:13:49.970Z,20.40
2022-08-12T02:16:37.942Z,20.40
2022-08-12T02:19:30.790Z,20.40
2022-08-12T02:22:13.193Z,20.50
2022-08-12T02:24:45.265Z,20.50
2022-08-12T02:27:16.368Z,20.50
2022-08-12T02:29:46.192Z,20.50
2022-08-12T02:32:15.542Z,20.60
2022-08-12T02:34:45.852Z,20.60
2022-08-12T02:37:16.817Z,20.60
2022-08-12T02:39:50.245Z,20.60
2022-08-12T02:42:22.182Z,20.50
2022-08-12T02:44:56.274Z,20.50
2022-08-12T02:48:00.356Z,20.50
2022-08-12T02:50:20.462Z,20.50
2022-08-12T02:52:49.816Z,20.40
2022-08-12T02:55:34.586Z,20.40
2022-08-12T02:58:12.715Z,20.40
2022-08-12T03:00:45.534Z,20.30
2022-08-12T03:03:15.709Z,20.30
2022-08-12T03:05:52.554Z,20.30
2022-08-12T03:08:31.930Z,20.30
2022-08-12T03:11:07.875Z,20.30
2022-08-12T03:13:48.456Z,20.30
2022-08-12T03:16:19.475Z,20.20
2022-08-12T03:18:49.739Z,20.20
2022-08-12T03:21:59.912Z,20.20
2022-08-12T03:24:10.033Z,20.20
2022-08-12T03:26:38.979Z,20.20
2022-08-12T03:29:08.311Z,20.20
2022-08-12T03:31:38.051Z,20.10
2022-08-12T03:34:09.522Z,20.10
2022-08-12T03:36:40.936Z,20.00
2022-08-12T03:39:36.196Z,20.00
2022-08-12T03:42:28.705Z,19.90
2022-08-12T03:45:42.023Z,19.90
2022-08-12T03:48:40.044Z,19.90
2022-08-12T03:51:27.512Z,19.80
2022-08-12T03:54:13.995Z,19.80
2022-08-12T03:56:59.984Z,19.80
2022-08-12T03:59:45.981Z,19.80
2022-08-12T04:02:16.323Z,19.70
2022-08-12T04:04:47.312Z,19.80
2022-08-12T04:07:18.333Z,19.80
2022-08-12T04:09:48.008Z,19.80
2022-08-12T04:12:34.497Z,19.80
2022-08-12T04:15:05.597Z,19.80
2022-08-12T04:17:35.554Z,19.80
2022-08-12T04:20:11.259Z,19.80
2022-08-12T04:22:40.726Z,19.80
2022-08-12T04:25:12.958Z,19.70
2022-08-12T04:27:46.214Z,19.70
2022-08-12T04:30:29.821Z,19.70
2022-08-12T04:33:01.445Z,19.70
2022-08-12T04:35:32.215Z,19.70
2022-08-12T04:38:01.194Z,19.60
2022-08-12T04:40:32.620Z,19.60
2022-08-12T04:43:02.172Z,19.60
2022-08-12T04:45:31.367Z,19.60
2022-08-12T04:48:01.899Z,19.60
2022-08-12T04:50:36.284Z,19.60
2022-08-12T04:53:08.306Z,19.60
2022-08-12T04:55:39.213Z,19.60
2022-08-12T04:58:08.478Z,19.60
2022-08-12T05:00:37.963Z,19.60
2022-08-12T05:03:07.526Z,19.60
2022-08-12T05:05:38.638Z,19.60
2022-08-12T05:08:12.811Z,19.70
2022-08-12T05:10:41.662Z,19.70
2022-08-12T05:13:14.367Z,19.70
2022-08-12T05:16:03.729Z,19.70
2022-08-12T05:18:33.693Z,19.70
2022-08-12T05:21:05.403Z,19.80
2022-08-12T05:23:33.929Z,19.80
2022-08-12T05:26:02.244Z,19.90
2022-08-12T05:28:31.119Z,19.90
2022-08-12T05:31:02.096Z,20.00
2022-08-12T05:33:37.651Z,20.00
2022-08-12T05:36:12.220Z,20.00
2022-08-12T05:38:59.851Z,20.00
2022-08-12T05:41:31.117Z,20.10
2022-08-12T05:44:01.655Z,20.10
2022-08-12T05:46:31.763Z,20.20
2022-08-12T05:49:01.635Z,20.20
2022-08-12T05:51:40.158Z,20.20
2022-08-12T05:54:11.729Z,20.30
2022-08-12T05:56:41.957Z,20.30
2022-08-12T05:59:13.971Z,20.30
2022-08-12T06:02:10.083Z,20.30
2022-08-12T06:04:33.233Z,20.40
2022-08-12T06:07:37.313Z,20.50
2022-08-12T06:09:52.192Z,20.50
2022-08-12T06:12:23.663Z,20.60
2022-08-12T06:14:55.664Z,20.60
2022-08-12T06:17:24.013Z,20.70
2022-08-12T06:20:26.731Z,20.70
2022-08-12T06:22:42.267Z,20.70
2022-08-12T06:25:11.145Z,20.80
2022-08-12T06:28:07.552Z,20.80
2022-08-12T06:30:39.370Z,20.90
2022-08-12T06:33:21.495Z,20.90
2022-08-12T06:35:57.804Z,21.00
2022-08-12T06:38:31.381Z,21.10
2022-08-12T06:41:19.761Z,21.10
2022-08-12T06:44:05.776Z,21.20
2022-08-12T06:46:38.925Z,21.30
2022-08-12T06:49:08.665Z,21.30
2022-08-12T06:51:36.987Z,21.40
2022-08-12T06:54:07.266Z,21.40
2022-08-12T06:59:25.069Z,21.50
2022-08-12T07:01:54.962Z,21.60
2022-08-12T07:04:36.201Z,21.70
2022-08-12T07:07:07.151Z,21.70
2022-08-12T07:10:04.419Z,21.80
2022-08-12T07:12:28.011Z,21.90
2022-08-12T07:14:57.377Z,22.00
2022-08-12T07:17:25.963Z,22.10
2022-08-12T07:19:58.022Z,22.10
2022-08-12T07:22:28.845Z,22.20
2022-08-12T07:25:15.914Z,22.20
2022-08-12T07:27:46.560Z,22.40
2022-08-12T07:30:15.396Z,22.50
2022-08-12T07:32:51.500Z,22.60
2022-08-12T07:35:20.444Z,22.70
2022-08-12T07:37:50.420Z,22.80
2022-08-12T07:40:21.485Z,22.90
2022-08-12T07:42:49.776Z,22.90
2022-08-12T07:45:20.381Z,23.00
2022-08-12T07:47:51.253Z,23.10
2022-08-12T07:50:23.788Z,23.20
2022-08-12T07:52:52.439Z,23.40
2022-08-12T07:55:22.184Z,23.50
2022-08-12T07:57:55.845Z,23.50
2022-08-12T08:00:24.957Z,23.70
2022-08-12T08:02:54.580Z,23.80
2022-08-12T08:05:25.618Z,23.90
2022-08-12T08:07:55.914Z,24.20
2022-08-12T08:10:26.217Z,24.80
2022-08-12T08:12:53.676Z,25.70
2022-08-12T08:15:38.612Z,26.60
2022-08-12T08:18:26.890Z,27.50
2022-08-12T08:20:57.440Z,28.40
2022-08-12T08:23:55.858Z,29.10
2022-08-12T08:26:27.260Z,29.70
2022-08-12T08:28:55.825Z,30.30
2022-08-12T08:31:24.252Z,30.70
2022-08-12T08:34:09.193Z,31.00
2022-08-12T08:36:43.640Z,31.10
2022-08-12T08:39:17.919Z,31.30
2022-08-12T08:42:17.302Z,31.60
2022-08-12T08:44:50.365Z,32.00
2022-08-12T08:47:27.122Z,32.20
2022-08-12T08:50:00.981Z,32.40
2022-08-12T08:52:40.030Z,32.60
2022-08-12T08:55:11.504Z,32.70
2022-08-12T08:57:44.667Z,32.70
2022-08-12T09:00:18.100Z,32.80
2022-08-12T09:02:49.098Z,33.00
2022-08-12T09:05:26.786Z,33.00
2022-08-12T09:08:09.109Z,33.00
2022-08-12T09:10:45.833Z,33.20
2022-08-12T09:14:11.764Z,33.40
2022-08-12T09:16:23.221Z,33.70
2022-08-12T09:18:52.506Z,33.90
2022-08-12T09:21:23.123Z,34.00
2022-08-12T09:30:11.804Z,34.00
2022-08-12T09:32:55.705Z,34.20
2022-08-12T09:35:22.215Z,34.30
2022-08-12T09:37:58.330Z,34.40
2022-08-12T09:41:01.739Z,34.60
2022-08-12T09:43:37.908Z,34.90
2022-08-12T09:46:25.043Z,35.10
2022-08-12T09:48:56.131Z,35.40
2022-08-12T09:51:35.609Z,35.60
2022-08-12T09:54:31.051Z,35.70
2022-08-12T09:57:00.985Z,35.70
2022-08-12T10:00:14.855Z,35.80
2022-08-12T10:02:52.744Z,35.80
2022-08-12T10:05:13.198Z,36.00
2022-08-12T10:07:42.763Z,36.10
2022-08-12T10:10:22.249Z,36.10
2022-08-12T10:13:14.048Z,36.10
2022-08-12T10:16:02.952Z,36.10
2022-08-12T10:18:52.396Z,36.10
2022-08-12T10:21:23.375Z,36.10
2022-08-12T10:23:56.904Z,36.30
2022-08-12T10:26:44.702Z,36.50
2022-08-12T10:30:37.235Z,36.50
2022-08-12T10:33:02.439Z,36.70
2022-08-12T10:35:16.396Z,36.90
2022-08-12T10:38:35.453Z,36.90
2022-08-12T10:40:58.569Z,37.00
2022-08-12T10:43:55.508Z,37.00
2022-08-12T10:46:30.846Z,37.20
2022-08-12T10:49:06.957Z,37.20
2022-08-12T10:52:03.661Z,37.10
2022-08-12T10:54:41.403Z,37.10
2022-08-12T10:57:18.481Z,37.30
2022-08-12T11:00:33.936Z,37.30
2022-08-12T11:04:25.040Z,37.30
2022-08-12T11:07:05.073Z,37.40
2022-08-12T11:08:43.695Z,37.50
2022-08-12T11:12:35.771Z,37.60
2022-08-12T11:14:09.096Z,37.60
2022-08-12T11:17:34.585Z,37.70
2022-08-12T11:19:46.388Z,37.70
2022-08-12T11:22:14.681Z,37.70
2022-08-12T11:24:51.318Z,37.70
2022-08-12T11:27:20.283Z,37.80
2022-08-12T11:30:05.225Z,37.80
2022-08-12T11:32:38.426Z,37.80
2022-08-12T11:35:11.716Z,37.80
2022-08-12T11:37:58.411Z,37.90
2022-08-12T11:40:29.939Z,37.90
2022-08-12T11:43:03.628Z,37.90
2022-08-12T11:45:52.895Z,37.90
2022-08-12T11:48:26.899Z,38.00
2022-08-12T11:50:56.486Z,37.90
2022-08-12T11:53:58.460Z,37.90
2022-08-12T11:56:14.376Z,38.00
2022-08-12T12:02:01.389Z,38.10
2022-08-12T12:04:28.724Z,38.00
2022-08-12T12:07:07.340Z,38.10
2022-08-12T12:09:51.856Z,38.10
2022-08-12T12:12:26.561Z,38.10
2022-08-12T12:15:03.052Z,38.00
2022-08-12T12:17:38.106Z,38.10
2022-08-12T12:20:09.950Z,38.10
2022-08-12T12:22:40.756Z,38.20
2022-08-12T12:25:13.020Z,38.30
2022-08-12T12:28:04.891Z,38.20
2022-08-12T12:30:35.217Z,38.10
2022-08-12T12:33:05.413Z,38.20
2022-08-12T12:36:17.148Z,38.30
2022-08-12T12:38:25.204Z,38.40
2022-08-12T12:40:55.217Z,38.50
2022-08-12T12:43:29.125Z,38.60
2022-08-12T12:46:11.577Z,38.70
2022-08-12T12:48:44.119Z,38.60
2022-08-12T12:51:49.109Z,38.70
2022-08-12T12:54:10.084Z,38.80
2022-08-12T12:56:42.856Z,38.90
2022-08-12T12:59:55.202Z,38.90
2022-08-12T13:02:08.226Z,39.00
2022-08-12T13:04:38.125Z,39.10
2022-08-12T13:07:07.896Z,39.20
2022-08-12T13:09:36.967Z,39.40
2022-08-12T13:12:10.802Z,39.40
2022-08-12T13:14:40.599Z,39.40
2022-08-12T13:17:14.635Z,39.50
2022-08-12T13:19:48.306Z,39.50
2022-08-12T13:22:23.602Z,39.50
2022-08-12T13:24:56.366Z,39.60
2022-08-12T13:27:35.181Z,39.60
2022-08-12T13:30:12.375Z,39.60
2022-08-12T13:32:43.568Z,39.50
2022-08-12T13:36:03.022Z,39.50
2022-08-12T13:38:13.628Z,39.50
2022-08-12T13:40:42.160Z,39.50
2022-08-12T13:43:40.637Z,39.50
2022-08-12T13:46:12.104Z,39.60
2022-08-12T13:48:45.184Z,39.70
2022-08-12T13:51:14.181Z,39.80
2022-08-12T13:53:57.655Z,39.60
2022-08-12T13:56:35.153Z,39.50
2022-08-12T13:59:08.033Z,39.60
2022-08-12T14:01:40.372Z,39.50
2022-08-12T14:04:11.935Z,39.50
2022-08-12T14:06:40.825Z,39.50
2022-08-12T14:09:17.483Z,39.50
2022-08-12T14:11:58.394Z,39.50
2022-08-12T14:14:31.525Z,39.40
2022-08-12T14:17:10.896Z,39.50
2022-08-12T14:20:00.731Z,39.50
2022-08-12T14:22:30.386Z,39.60
2022-08-12T14:25:01.288Z,39.70
2022-08-12T14:28:04.120Z,39.60
2022-08-12T14:30:29.142Z,39.60
2022-08-12T14:33:03.329Z,39.40
2022-08-12T14:35:33.940Z,39.30
2022-08-12T14:38:25.885Z,39.30
2022-08-12T14:40:57.702Z,39.20
2022-08-12T14:43:31.622Z,39.20
2022-08-12T14:46:16.146Z,39.20
2022-08-12T14:48:50.914Z,39.20
2022-08-12T14:52:54.092Z,39.10
2022-08-12T14:56:59.779Z,39.10
2022-08-12T14:57:20.490Z,39.20
2022-08-12T15:00:04.410Z,39.20
2022-08-12T15:02:32.661Z,39.20
2022-08-12T15:05:03.460Z,39.30
2022-08-12T15:07:33.609Z,39.20
2022-08-12T15:10:31.368Z,39.10
2022-08-12T15:13:07.544Z,38.80
2022-08-12T15:15:44.136Z,38.50
2022-08-12T15:18:21.074Z,38.30
2022-08-12T15:20:54.751Z,38.40
2022-08-12T15:23:24.434Z,38.50
2022-08-12T15:26:02.589Z,38.40
2022-08-12T15:28:34.987Z,38.40
2022-08-12T15:31:21.570Z,38.40
2022-08-12T15:33:54.525Z,38.40
2022-08-12T15:36:50.244Z,38.40
2022-08-12T15:39:16.489Z,38.50
2022-08-12T15:41:49.165Z,38.50
2022-08-12T15:44:42.273Z,38.50
2022-08-12T15:47:06.656Z,38.50
2022-08-12T15:49:54.292Z,38.30
2022-08-12T15:52:29.956Z,38.20
2022-08-12T15:55:06.281Z,38.10
2022-08-12T15:57:53.236Z,38.00
2022-08-12T16:00:33.173Z,37.80
2022-08-12T16:03:08.496Z,37.70
2022-08-12T16:06:11.027Z,37.70
2022-08-12T16:08:42.366Z,37.70
2022-08-12T16:11:14.821Z,37.60
2022-08-12T16:13:44.477Z,37.60
2022-08-12T16:16:23.786Z,37.60
2022-08-12T16:18:59.545Z,37.60
2022-08-12T16:21:51.328Z,37.70
2022-08-12T16:24:20.481Z,37.70
2022-08-12T16:26:54.346Z,37.70
2022-08-12T16:29:49.353Z,37.70
2022-08-12T16:32:23.177Z,37.70
2022-08-12T16:34:55.907Z,37.70
2022-08-12T16:38:05.041Z,37.70
2022-08-12T16:40:15.988Z,37.50
2022-08-12T16:42:54.133Z,37.50
2022-08-12T16:46:05.170Z,37.50
2022-08-12T16:48:34.900Z,37.40
2022-08-12T16:51:09.334Z,37.30
2022-08-12T16:53:44.673Z,37.20
2022-08-12T16:56:17.224Z,37.10
2022-08-12T16:58:47.031Z,37.00
2022-08-12T17:01:15.736Z,36.80
2022-08-12T17:03:52.832Z,36.70
2022-08-12T17:06:27.630Z,36.60
2022-08-12T17:09:08.778Z,36.40
2022-08-12T17:11:49.179Z,36.30
2022-08-12T17:14:20.368Z,36.20
2022-08-12T17:16:54.901Z,36.10
2022-08-12T17:20:12.140Z,36.00
2022-08-12T17:22:16.555Z,35.90
2022-08-12T17:24:55.428Z,35.70
2022-08-12T17:27:26.607Z,35.60
2022-08-12T17:30:04.712Z,35.50
2022-08-12T17:32:37.195Z,35.40
2022-08-12T17:35:29.617Z,35.20
2022-08-12T17:38:02.158Z,35.20
2022-08-12T17:40:35.904Z,35.00
2022-08-12T17:43:52.045Z,34.90
2022-08-12T17:45:59.841Z,34.90
2022-08-12T17:48:34.812Z,34.70
2022-08-12T17:51:15.610Z,34.60
2022-08-12T17:54:06.060Z,34.40
2022-08-12T17:56:37.906Z,34.20
2022-08-12T17:59:12.747Z,33.90
2022-08-12T18:01:45.510Z,33.70
2022-08-12T18:04:22.987Z,33.40
2022-08-12T18:07:08.426Z,33.20
2022-08-12T18:09:37.838Z,33.00
2022-08-12T18:12:26.611Z,32.80
2022-08-12T18:15:00.504Z,32.60
2022-08-12T18:17:32.339Z,32.40
2022-08-12T18:20:15.546Z,32.20
2022-08-12T18:22:47.514Z,32.00
2022-08-12T18:26:16.755Z,31.70
2022-08-12T18:28:28.159Z,31.50
2022-08-12T18:31:03.362Z,31.30
2022-08-12T18:33:41.694Z,31.10
2022-08-12T18:36:22.504Z,30.90
2022-08-12T18:38:56.038Z,30.70
2022-08-12T18:41:32.103Z,30.60
2022-08-12T18:44:07.929Z,30.40
2022-08-12T18:46:48.891Z,30.30
2022-08-12T18:49:31.582Z,30.20
2022-08-12T18:52:04.680Z,30.00
2022-08-12T18:54:41.405Z,29.80
2022-08-12T18:57:19.797Z,29.70
2022-08-12T19:00:13.123Z,29.50
2022-08-12T19:02:44.362Z,29.40
2022-08-12T19:05:17.573Z,29.20
2022-08-12T19:08:01.806Z,29.10
2022-08-12T19:10:32.415Z,28.90
2022-08-12T19:13:24.271Z,28.80
2022-08-12T19:15:57.489Z,28.60
2022-08-12T19:18:31.117Z,28.40
2022-08-12T19:21:06.661Z,28.30
2022-08-12T19:23:43.964Z,28.20
2022-08-12T19:26:13.241Z,28.00
2022-08-12T19:28:51.712Z,28.00
2022-08-12T19:31:55.789Z,27.70
2022-08-12T19:37:27.188Z,27.40
2022-08-12T19:40:09.495Z,27.40
2022-08-12T19:42:53.603Z,27.20
2022-08-12T19:45:22.946Z,27.00
2022-08-12T19:47:51.277Z,26.90
2022-08-12T19:50:20.904Z,26.80
2022-08-12T19:52:51.051Z,26.70
2022-08-12T19:55:22.868Z,26.50
2022-08-12T19:58:01.927Z,26.40
2022-08-12T20:00:34.499Z,26.40
2022-08-12T20:03:05.311Z,26.30
2022-08-12T20:06:06.333Z,26.20
2022-08-12T20:08:31.436Z,26.10
2022-08-12T20:12:13.088Z,26.00
2022-08-12T20:14:00.536Z,25.90
2022-08-12T20:19:52.731Z,25.70
2022-08-12T20:22:23.841Z,25.60
2022-08-12T20:25:06.785Z,25.50
2022-08-12T20:28:04.298Z,25.40
2022-08-12T20:30:37.906Z,25.30
2022-08-12T20:33:18.475Z,25.20
2022-08-12T20:36:07.066Z,25.10
2022-08-12T20:38:46.041Z,25.10
2022-08-12T20:41:19.268Z,25.00
2022-08-12T20:43:50.660Z,24.90
2022-08-12T20:46:21.456Z,24.80
2022-08-12T20:48:54.581Z,24.80
2022-08-12T20:51:27.621Z,24.70
2022-08-12T20:54:00.160Z,24.70
2022-08-12T20:56:32.969Z,24.50
2022-08-12T20:59:06.994Z,24.50
2022-08-12T21:01:36.659Z,24.40
2022-08-12T21:04:34.245Z,24.40
2022-08-12T21:07:09.734Z,24.30
2022-08-12T21:09:44.622Z,24.20
2022-08-12T21:12:27.833Z,24.20
2022-08-12T21:15:23.707Z,24.10
2022-08-12T21:18:11.439Z,24.00
2022-08-12T21:20:53.117Z,24.00
2022-08-12T21:23:23.561Z,23.90
2022-08-12T21:26:01.278Z,23.80
2022-08-12T21:28:31.186Z,23.70
2022-08-12T21:32:34.533Z,23.70
2022-08-12T21:34:08.769Z,23.60
2022-08-12T21:36:43.423Z,23.50
2022-08-12T21:39:21.400Z,23.50
2022-08-12T21:41:53.755Z,23.40
2022-08-12T21:45:47.900Z,23.30
2022-08-12T21:47:21.196Z,23.20
2022-08-12T21:50:02.917Z,23.10
2022-08-12T21:52:36.011Z,23.10
2022-08-12T21:55:08.447Z,22.90
2022-08-12T21:57:53.541Z,22.90
2022-08-12T22:00:33.592Z,22.90
2022-08-12T22:04:02.028Z,22.80
2022-08-12T22:06:30.692Z,22.80
2022-08-12T22:09:16.571Z,22.80
2022-08-12T22:11:56.052Z,22.80
2022-08-12T22:14:29.021Z,22.70
2022-08-12T22:17:00.786Z,22.70
2022-08-12T22:19:33.781Z,22.70
2022-08-12T22:22:05.325Z,22.70
2022-08-12T22:24:34.182Z,22.60
2022-08-12T22:27:08.132Z,22.50
2022-08-12T22:30:11.218Z,22.50
2022-08-12T22:32:49.880Z,22.50
2022-08-12T22:35:47.690Z,22.50
2022-08-12T22:38:26.489Z,22.40
2022-08-12T22:40:58.538Z,22.40
2022-08-12T22:43:59.555Z,22.40
2022-08-12T22:46:53.104Z,22.40
2022-08-12T22:49:25.988Z,22.30
2022-08-12T22:52:08.214Z,22.30
2022-08-12T22:54:37.898Z,22.30
2022-08-12T22:57:53.291Z,22.30
2022-08-12T23:00:24.170Z,22.30
2022-08-12T23:03:02.997Z,22.20
2022-08-12T23:05:56.704Z,22.20
2022-08-12T23:08:29.888Z,22.10
2022-08-12T23:11:00.064Z,22.10
2022-08-12T23:13:49.095Z,22.10
2022-08-12T23:16:31.181Z,22.00
2022-08-12T23:19:10.354Z,22.00
2022-08-12T23:22:06.482Z,22.00
2022-08-12T23:24:55.654Z,22.00
2022-08-12T23:27:50.917Z,21.90
2022-08-12T23:30:31.197Z,22.00
2022-08-12T23:33:01.445Z,21.90
2022-08-12T23:35:53.982Z,21.80
2022-08-12T23:38:31.814Z,21.80
2022-08-12T23:41:02.862Z,21.80
2022-08-12T23:43:39.163Z,21.70
2022-08-12T23:46:11.558Z,21.70
2022-08-12T23:48:40.933Z,21.60
2022-08-12T23:51:22.549Z,21.50
2022-08-12T23:54:00.051Z,21.60
2022-08-12T23:56:33.559Z,21.40
2022-08-12T23:59:03.098Z,21.30
